Time;durP1;ratioP1;P1;durP2;ratioP2;P2;SDS_P1;SDS_P2;PMS_P1;PMS_P2;Temp;Humidity;BMP_temperature;BMP_pressure;BME280_temperature;BME280_humidity;BME280_pressure;Samples;Min_cycle;Max_cycle;Signal;HPM_P1;HPM_P2
2022/03/12 02:07:21;;;;;;;65.62;25.40;;;;;;;4.97;32.17;100912.19;1779599;79;23200;-58
2022/03/12 02:09:50;;;;;;;52.93;23.57;;;;;;;7.74;27.72;100897.68;1739734;81;21628;-57
2022/03/12 02:12:17;;;;;;;47.55;21.42;;;;;;;7.94;27.44;100899.19;1740922;80;22468;-57
2022/03/12 02:14:44;;;;;;;59.70;25.12;;;;;;;7.99;27.50;100894.32;1744953;80;21538;-58
2022/03/12 02:17:12;;;;;;;54.83;24.05;;;;;;;8.08;27.51;100895.08;1743185;80;21100;-57
2022/03/12 02:19:40;;;;;;;53.30;22.80;;;;;;;8.14;27.42;100888.03;1742499;80;21021;-58
2022/03/12 02:22:09;;;;;;;67.40;24.95;;;;;;;8.21;27.46;100890.56;1744213;80;21525;-57
2022/03/12 02:24:38;;;;;;;53.08;22.20;;;;;;;8.27;27.46;100886.53;1746209;81;21282;-57
2022/03/12 02:27:10;;;;;;;52.08;22.25;;;;;;;8.31;27.35;100889.56;1742784;81;21585;-57
2022/03/12 02:29:37;;;;;;;59.77;23.12;;;;;;;8.35;27.33;100889.94;1748407;80;21643;-57
2022/03/12 02:32:10;;;;;;;57.03;23.32;;;;;;;8.40;27.33;100884.20;1743456;80;21462;-57
2022/03/12 02:34:49;;;;;;;61.73;23.07;;;;;;;8.41;27.31;100882.44;1741371;80;20992;-57
2022/03/12 02:37:28;;;;;;;49.27;21.68;;;;;;;8.49;27.27;100887.15;1739688;80;21844;-56
2022/03/12 02:39:49;;;;;;;41.25;19.30;;;;;;;8.49;27.22;100877.97;1744003;80;21435;-57
2022/03/12 02:42:16;;;;;;;46.00;17.82;;;;;;;8.50;27.25;100878.41;1742579;80;21057;-57
2022/03/12 02:44:44;;;;;;;47.33;17.15;;;;;;;8.47;27.19;100887.61;1736156;80;25232;-59
2022/03/12 02:47:22;;;;;;;40.70;16.75;;;;;;;8.49;27.22;100880.59;1746363;81;21449;-57
2022/03/12 02:49:51;;;;;;;35.20;15.28;;;;;;;8.55;27.17;100873.94;1734650;80;22554;-57
2022/03/12 02:52:19;;;;;;;34.20;14.10;;;;;;;8.63;26.93;100872.55;1748070;80;21405;-57
2022/03/12 02:54:47;;;;;;;28.95;12.82;;;;;;;8.65;26.88;100857.66;1746269;80;21499;-57
2022/03/12 02:57:14;;;;;;;30.82;12.70;;;;;;;8.67;26.92;100858.50;1744973;81;21474;-57
2022/03/12 02:59:48;;;;;;;25.48;12.40;;;;;;;8.68;26.85;100859.78;1740813;80;21501;-56
2022/03/12 03:02:14;;;;;;;32.03;12.45;;;;;;;8.66;26.85;100859.38;1744399;80;22562;-56
2022/03/12 03:04:40;;;;;;;28.30;12.28;;;;;;;8.65;26.76;100853.27;1746884;81;20938;-56
2022/03/12 03:07:09;;;;;;;28.80;11.83;;;;;;;8.66;26.71;100850.19;1741390;80;21029;-56
2022/03/12 03:09:36;;;;;;;29.82;11.48;;;;;;;8.65;26.72;100849.79;1740963;80;21412;-57
2022/03/12 03:12:08;;;;;;;29.48;11.70;;;;;;;8.65;26.79;100845.86;1738292;80;21570;-57
2022/03/12 03:14:38;;;;;;;26.15;10.93;;;;;;;8.65;26.67;100844.09;1741692;80;21436;-57
2022/03/12 03:17:07;;;;;;;21.70;9.63;;;;;;;8.72;26.59;100839.59;1740657;80;21404;-57
2022/03/12 03:19:34;;;;;;;29.72;9.70;;;;;;;8.73;26.51;100849.21;1746583;81;21428;-57
2022/03/12 03:22:01;;;;;;;25.20;10.40;;;;;;;8.74;26.58;100840.02;1741977;80;21414;-57
2022/03/12 03:24:28;;;;;;;27.42;10.32;;;;;;;8.71;26.61;100835.27;1739351;80;27643;-57
2022/03/12 03:26:58;;;;;;;26.87;10.03;;;;;;;8.71;26.57;100838.74;1741824;80;22498;-58
2022/03/12 03:29:28;;;;;;;22.05;10.13;;;;;;;8.70;26.45;100831.78;1741275;80;21470;-58
2022/03/12 03:31:55;;;;;;;19.65;9.45;;;;;;;8.76;26.57;100837.37;1745562;79;21507;-57
2022/03/12 03:34:22;;;;;;;20.70;9.70;;;;;;;8.76;26.56;100830.36;1741394;80;21442;-58
2022/03/12 03:36:49;;;;;;;13.10;7.55;;;;;;;8.68;26.58;100831.37;1744819;80;21446;-58
2022/03/12 03:39:16;;;;;;;;;;;;;;;8.68;26.52;100830.95;1742495;80;22512;-57
2022/03/12 03:41:43;;;;;;;12.80;7.22;;;;;;;8.69;26.39;100830.03;1750200;81;20800;-57
2022/03/12 03:44:13;;;;;;;12.40;6.28;;;;;;;8.66;26.54;100831.38;1740120;80;21419;-58
2022/03/12 03:46:39;;;;;;;15.50;7.78;;;;;;;8.69;26.49;100827.87;1743576;80;20929;-58
2022/03/12 03:49:07;;;;;;;12.93;7.17;;;;;;;8.69;26.55;100828.73;1708559;83;21430;-58
2022/03/12 03:51:37;;;;;;;;;;;;;;;8.74;26.55;100828.67;1708087;82;22364;-58
2022/03/12 03:54:02;;;;;;;19.40;8.03;;;;;;;8.76;26.49;100826.43;1688060;84;20896;-56
2022/03/12 03:56:29;;;;;;;20.20;8.05;;;;;;;8.71;26.51;100827.39;1650189;83;21802;-58
2022/03/12 03:58:56;;;;;;;14.70;8.25;;;;;;;8.73;26.62;100824.30;1690182;83;21480;-57
2022/03/12 04:01:22;;;;;;;16.27;7.75;;;;;;;8.67;26.72;100823.09;1684355;84;21493;-57
2022/03/12 04:03:51;;;;;;;17.65;8.05;;;;;;;8.68;26.70;100818.26;1686035;82;21581;-57
2022/03/12 04:06:22;;;;;;;20.10;10.72;;;;;;;8.73;26.62;100813.81;1685740;83;21500;-57
2022/03/12 04:08:51;;;;;;;20.92;10.58;;;;;;;8.71;26.76;100819.08;1680942;84;21003;-58
2022/03/12 04:11:22;;;;;;;27.32;12.47;;;;;;;8.68;26.57;100819.56;1679448;83;21422;-58
2022/03/12 04:13:52;;;;;;;31.12;14.70;;;;;;;8.66;26.58;100816.11;1672157;83;21587;-58
2022/03/12 04:16:21;;;;;;;30.75;15.00;;;;;;;8.79;26.59;100811.53;1725257;80;21389;-56
2022/03/12 04:18:50;;;;;;;29.57;14.13;;;;;;;8.80;26.51;100808.00;1729679;82;21397;-56
2022/03/12 04:21:19;;;;;;;27.10;13.20;;;;;;;8.82;26.53;100811.04;1727959;80;21035;-57
2022/03/12 04:23:49;;;;;;;29.32;15.05;;;;;;;8.92;26.47;100819.16;1727231;81;21333;-56
2022/03/12 04:26:16;;;;;;;29.05;15.20;;;;;;;8.96;26.40;100810.79;1733419;81;22861;-56
2022/03/12 04:28:43;;;;;;;29.23;14.45;;;;;;;8.92;26.48;100811.74;1731365;82;22535;-56
2022/03/12 04:31:11;;;;;;;31.97;13.78;;;;;;;8.99;26.54;100808.12;1727369;80;21480;-57
2022/03/12 04:33:40;;;;;;;31.33;14.38;;;;;;;9.10;26.61;100807.94;1695944;81;21486;-56
2022/03/12 04:36:13;;;;;;;27.30;12.43;;;;;;;9.23;26.53;100803.30;1729712;82;21384;-56
2022/03/12 04:38:37;;;;;;;25.85;12.98;;;;;;;9.16;26.47;100798.18;1726308;80;21555;-56
2022/03/12 04:41:03;;;;;;;22.82;10.80;;;;;;;9.28;26.48;100796.22;1728173;81;22628;-56
2022/03/12 04:43:30;;;;;;;21.43;10.53;;;;;;;9.35;26.40;100796.07;1729145;81;21363;-56
2022/03/12 04:45:58;;;;;;;19.57;10.18;;;;;;;9.35;26.39;100798.70;1730676;82;21456;-56
2022/03/12 04:48:26;;;;;;;20.05;10.18;;;;;;;9.41;26.31;100795.08;1728087;81;21484;-57
2022/03/12 04:50:54;;;;;;;26.85;11.68;;;;;;;9.63;26.14;100796.84;1731788;81;21520;-57
2022/03/12 04:53:21;;;;;;;21.02;10.08;;;;;;;9.80;26.23;100797.80;1727183;81;21553;-57
2022/03/12 04:55:50;;;;;;;20.27;10.88;;;;;;;9.74;26.33;100791.38;1730718;82;21369;-56
2022/03/12 04:58:18;;;;;;;21.45;10.50;;;;;;;9.77;26.20;100795.69;1728964;81;21327;-57
2022/03/12 05:00:44;;;;;;;22.48;10.72;;;;;;;9.89;26.28;100793.67;1732690;81;21466;-57
2022/03/12 05:03:19;;;;;;;20.97;9.97;;;;;;;10.04;26.22;100795.09;1723996;81;21507;-57
2022/03/12 05:05:50;;;;;;;20.55;10.00;;;;;;;9.99;26.31;100794.78;1692782;84;22604;-57
2022/03/12 05:08:28;;;;;;;21.20;9.08;;;;;;;10.08;26.14;100796.75;1733552;81;21407;-58
2022/03/12 05:10:56;;;;;;;20.05;10.25;;;;;;;10.17;26.09;100799.64;1733826;82;21470;-57
2022/03/12 05:13:27;;;;;;;18.95;10.23;;;;;;;10.18;26.08;100800.03;1728861;81;21479;-58
2022/03/12 05:16:03;;;;;;;19.15;9.95;;;;;;;10.21;25.94;100801.29;1724203;81;20887;-58
2022/03/12 05:18:28;;;;;;;19.87;11.20;;;;;;;10.32;25.80;100803.68;1691726;84;22521;-58
2022/03/12 05:20:55;;;;;;;21.35;10.20;;;;;;;10.50;25.75;100801.08;1730108;81;21487;-57
2022/03/12 05:23:24;;;;;;;19.17;9.65;;;;;;;10.46;25.67;100801.60;1722167;81;21574;-58
2022/03/12 05:25:54;;;;;;;16.93;9.03;;;;;;;10.60;25.74;100796.45;1690473;83;21068;-59
2022/03/12 05:28:24;;;;;;;17.83;9.40;;;;;;;10.58;25.53;100796.48;1686934;84;21414;-58
2022/03/12 05:30:59;;;;;;;15.75;8.80;;;;;;;10.14;26.00;100792.66;1726178;81;22460;-59
2022/03/12 05:33:25;;;;;;;18.52;8.95;;;;;;;10.06;26.12;100791.98;1732460;81;21497;-59
2022/03/12 05:35:53;;;;;;;17.30;8.13;;;;;;;10.24;26.06;100793.31;1734437;80;21467;-58
2022/03/12 05:38:23;;;;;;;19.75;9.23;;;;;;;10.22;25.98;100787.69;1740161;80;21437;-59
2022/03/12 05:40:50;;;;;;;13.60;7.50;;;;;;;10.17;25.88;100792.17;1740072;80;20965;-58
2022/03/12 05:43:17;;;;;;;16.07;8.23;;;;;;;10.21;25.84;100780.69;1677571;84;22595;-59
2022/03/12 05:45:47;;;;;;;12.00;6.55;;;;;;;10.23;25.94;100780.23;1690510;84;21478;-58
2022/03/12 05:48:14;;;;;;;13.75;7.50;;;;;;;10.10;25.84;100785.75;1731941;81;21479;-58
2022/03/12 05:50:44;;;;;;;11.90;6.85;;;;;;;10.07;25.86;100783.64;1728818;81;21491;-59
2022/03/12 05:53:11;;;;;;;14.45;7.10;;;;;;;10.16;25.88;100783.89;1730074;81;21656;-59
2022/03/12 05:55:41;;;;;;;16.10;6.67;;;;;;;10.21;25.83;100777.63;1725768;80;22586;-58
2022/03/12 05:58:11;;;;;;;13.32;7.10;;;;;;;10.76;25.18;100771.51;1729138;81;21546;-58
2022/03/12 06:00:42;;;;;;;12.28;6.10;;;;;;;10.70;24.95;100766.41;1726972;79;21455;-58
2022/03/12 06:03:10;;;;;;;12.63;7.08;;;;;;;10.58;25.04;100777.22;1734023;80;20946;-59
2022/03/12 06:05:40;;;;;;;11.08;6.55;;;;;;;10.68;24.96;100770.81;1721732;81;22597;-60
2022/03/12 06:08:07;;;;;;;11.70;7.03;;;;;;;10.68;24.96;100783.97;1733327;81;22567;-60
2022/03/12 06:10:37;;;;;;;9.30;6.60;;;;;;;10.87;25.08;100778.67;1730666;80;21750;-59
2022/03/12 06:13:07;;;;;;;12.03;6.67;;;;;;;11.01;24.99;100776.13;1738380;80;21435;-58
2022/03/12 06:15:36;;;;;;;12.30;6.42;;;;;;;11.01;25.05;100776.13;1735356;81;20926;-60
2022/03/12 06:18:04;;;;;;;12.23;6.17;;;;;;;11.15;25.02;100768.73;1733809;82;21507;-59
2022/03/12 06:20:35;;;;;;;12.55;6.17;;;;;;;10.99;24.83;100766.95;1735431;80;26260;-60
2022/03/12 06:23:00;;;;;;;13.68;6.30;;;;;;;11.31;24.85;100758.63;1730465;81;21404;-60
2022/03/12 06:25:29;;;;;;;7.35;4.90;;;;;;;11.45;24.53;100760.86;1735911;81;21371;-61
2022/03/12 06:27:56;;;;;;;10.88;5.70;;;;;;;11.55;24.39;100759.70;1690697;84;21481;-61
2022/03/12 06:30:25;;;;;;;11.03;5.37;;;;;;;11.62;24.42;100753.36;1688264;84;21494;-61
2022/03/12 06:32:56;;;;;;;10.63;5.37;;;;;;;11.82;24.35;100756.70;1696775;82;22552;-59
2022/03/12 06:35:24;;;;;;;7.95;5.28;;;;;;;11.82;24.26;100757.16;1692932;84;21392;-60
2022/03/12 06:37:50;;;;;;;11.80;4.50;;;;;;;12.05;24.13;100754.73;1681107;82;21419;-61
2022/03/12 06:40:18;;;;;;;7.85;4.97;;;;;;;12.21;23.71;100755.09;1689643;84;21456;-61
2022/03/12 06:42:47;;;;;;;9.95;5.35;;;;;;;12.38;23.74;100751.91;1697259;84;20948;-61
2022/03/12 06:45:15;;;;;;;10.08;5.17;;;;;;;12.55;23.50;100751.82;1687248;84;21591;-61
2022/03/12 06:47:44;;;;;;;7.30;5.03;;;;;;;12.58;23.11;100745.10;1732532;81;21601;-61
2022/03/12 06:50:14;;;;;;;8.93;5.17;;;;;;;12.80;23.04;100752.69;1730304;81;21379;-61
2022/03/12 06:52:43;;;;;;;8.78;5.55;;;;;;;13.08;22.95;100746.92;1732950;81;21583;-60
2022/03/12 06:55:10;;;;;;;9.80;5.35;;;;;;;13.09;22.87;100742.91;1730658;81;21531;-61
2022/03/12 06:57:38;;;;;;;8.25;4.45;;;;;;;13.20;23.01;100746.03;1732992;80;22489;-61
2022/03/12 07:00:06;;;;;;;8.13;4.95;;;;;;;13.33;22.74;100739.00;1735857;80;21478;-60
2022/03/12 07:02:34;;;;;;;7.40;4.97;;;;;;;13.40;22.20;100733.90;1734271;80;21542;-60
2022/03/12 07:05:01;;;;;;;8.55;4.90;;;;;;;13.52;22.21;100728.60;1732585;80;21388;-60
2022/03/12 07:07:28;;;;;;;9.15;5.20;;;;;;;13.60;21.85;100731.84;1728348;80;21360;-60
2022/03/12 07:09:56;;;;;;;8.88;4.97;;;;;;;13.55;22.14;100728.50;1726990;80;21383;-61
2022/03/12 07:12:23;;;;;;;8.20;5.00;;;;;;;13.68;22.16;100728.43;1687122;82;21495;-60
2022/03/12 07:14:50;;;;;;;7.00;4.50;;;;;;;13.98;21.95;100721.08;1688379;84;21489;-60
2022/03/12 07:17:17;;;;;;;7.83;4.78;;;;;;;14.21;21.92;100721.94;1728741;81;21461;-61
2022/03/12 07:19:44;;;;;;;6.30;4.13;;;;;;;14.49;21.71;100720.34;1730661;82;21530;-59
2022/03/12 07:22:12;;;;;;;6.97;4.42;;;;;;;14.52;21.60;100717.58;1723733;82;21581;-61
2022/03/12 07:24:40;;;;;;;;;;;;;;;14.56;21.53;100715.63;1729347;81;21497;-60
2022/03/12 07:27:08;;;;;;;8.38;4.33;;;;;;;9.02;25.27;100731.97;1725378;80;20415;-61
2022/03/12 07:29:36;;;;;;;4.47;3.73;;;;;;;7.21;29.04;100741.70;1731978;81;20934;-61
2022/03/12 07:32:03;;;;;;;6.95;4.00;;;;;;;6.94;29.35;100735.45;1723643;80;24169;-61
2022/03/12 07:34:30;;;;;;;7.60;4.22;;;;;;;7.05;29.99;100739.27;1732593;82;26212;-61
2022/03/12 07:36:57;;;;;;;4.40;3.55;;;;;;;7.16;29.89;100731.72;1722484;81;21407;-60
2022/03/12 07:39:23;;;;;;;7.03;3.67;;;;;;;7.33;29.78;100722.36;1729275;81;21312;-59
2022/03/12 07:41:50;;;;;;;7.53;4.62;;;;;;;7.56;29.59;100715.52;1723836;81;21578;-59
2022/03/12 07:44:17;;;;;;;5.70;4.05;;;;;;;7.88;28.80;100705.50;1729229;80;21704;-60
2022/03/12 07:46:44;;;;;;;5.97;3.90;;;;;;;8.17;27.97;100706.34;1734467;80;21962;-60
2022/03/12 07:49:11;;;;;;;6.85;4.15;;;;;;;8.56;27.82;100703.98;1728468;81;21186;-59
2022/03/12 07:51:38;;;;;;;5.75;3.52;;;;;;;9.04;27.53;100698.73;1728072;80;20946;-60
2022/03/12 07:54:07;;;;;;;5.78;4.03;;;;;;;9.50;27.19;100689.89;1729215;80;21519;-59
2022/03/12 07:56:34;;;;;;;10.85;4.28;;;;;;;9.83;26.29;100691.37;1723489;81;21499;-59
2022/03/12 07:59:02;;;;;;;6.12;4.15;;;;;;;10.34;25.50;100682.30;1728548;81;22544;-61
2022/03/12 08:01:29;;;;;;;;;;;;;;;10.97;25.70;100679.75;1731399;80;21348;-62
2022/03/12 08:03:58;;;;;;;3.62;2.80;;;;;;;11.43;24.46;100671.83;1725550;81;20467;-59
2022/03/12 08:06:26;;;;;;;96.92;48.92;;;;;;;11.85;24.17;100660.43;1727401;81;21516;-60
2022/03/12 08:08:53;;;;;;;48.65;33.92;;;;;;;12.28;23.89;100660.81;1739551;81;21558;-59
2022/03/12 08:11:32;;;;;;;32.58;23.45;;;;;;;12.60;23.53;100658.84;1739791;80;22791;-59
2022/03/12 08:14:02;;;;;;;30.10;21.68;;;;;;;12.96;22.68;100655.80;1734454;80;20934;-61
2022/03/12 08:16:30;;;;;;;17.82;12.15;;;;;;;13.52;22.59;100641.42;1740050;80;21455;-59
2022/03/12 08:18:57;;;;;;;6.17;4.65;;;;;;;13.99;22.20;100641.30;1739106;80;21359;-58
2022/03/12 08:21:24;;;;;;;15.35;8.73;;;;;;;14.31;21.85;100637.30;1746031;81;21430;-58
2022/03/12 08:23:51;;;;;;;9.25;7.33;;;;;;;14.46;21.09;100633.14;1742528;80;22438;-60
2022/03/12 08:26:18;;;;;;;5.12;3.83;;;;;;;14.43;21.24;100631.97;1739286;80;21495;-62
2022/03/12 08:28:45;;;;;;;5.53;4.53;;;;;;;14.85;21.26;100626.20;1744306;80;21422;-62
2022/03/12 08:31:12;;;;;;;6.90;4.47;;;;;;;15.19;20.82;100634.79;1735290;80;21904;-59
2022/03/12 08:33:39;;;;;;;5.05;3.40;;;;;;;15.54;20.86;100627.84;1746538;80;21461;-59
2022/03/12 08:36:06;;;;;;;5.03;2.97;;;;;;;16.03;20.23;100621.09;1743237;80;22998;-59
2022/03/12 08:38:36;;;;;;;4.58;3.30;;;;;;;16.81;19.98;100617.53;1740487;80;21408;-60
2022/03/12 08:41:05;;;;;;;4.25;3.08;;;;;;;17.39;19.24;100617.05;1713588;81;21429;-61
2022/03/12 08:43:33;;;;;;;4.50;3.15;;;;;;;17.46;18.02;100621.08;1744381;80;20961;-60
2022/03/12 08:46:00;;;;;;;5.20;3.37;;;;;;;17.36;18.26;100623.00;1738083;81;21399;-61
2022/03/12 08:48:28;;;;;;;6.78;3.98;;;;;;;17.47;18.41;100611.30;1740487;80;22667;-60
2022/03/12 08:50:54;;;;;;;4.50;3.25;;;;;;;17.75;17.89;100617.72;1740725;80;20976;-60
2022/03/12 08:53:21;;;;;;;6.00;3.85;;;;;;;18.07;17.86;100602.58;1745794;81;21435;-60
2022/03/12 08:55:49;;;;;;;7.67;4.58;;;;;;;18.60;17.87;100606.48;1743538;80;21515;-60
2022/03/12 08:58:17;;;;;;;5.53;4.60;;;;;;;18.73;16.87;100601.27;1746372;81;21483;-61
2022/03/12 09:00:44;;;;;;;5.45;4.95;;;;;;;18.49;17.30;100605.79;1738165;80;21586;-61
2022/03/12 09:03:12;;;;;;;8.90;6.60;;;;;;;18.66;17.38;100595.92;1741565;80;20969;-62
2022/03/12 09:05:39;;;;;;;7.40;5.15;;;;;;;18.82;16.92;100598.06;1696545;82;21505;-61
2022/03/12 09:08:05;;;;;;;6.87;4.85;;;;;;;19.02;16.90;100597.28;1702572;82;21367;-61
2022/03/12 09:10:33;;;;;;;7.45;5.72;;;;;;;19.20;17.26;100591.28;1694874;82;21484;-61
2022/03/12 09:13:01;;;;;;;10.82;6.90;;;;;;;19.25;17.02;100596.69;1696568;83;21860;-63
2022/03/12 09:15:28;;;;;;;12.73;7.67;;;;;;;18.58;16.81;100580.91;1696505;82;21667;-61
2022/03/12 09:17:54;;;;;;;10.93;7.15;;;;;;;17.64;16.59;100593.06;1694259;83;20918;-61
2022/03/12 09:20:22;;;;;;;11.48;8.18;;;;;;;17.58;17.68;100584.11;1694795;82;21398;-63
2022/03/12 09:22:50;;;;;;;9.95;7.60;;;;;;;17.60;17.55;100588.87;1728622;80;21579;-63
2022/03/12 09:25:17;;;;;;;13.38;7.97;;;;;;;17.91;17.38;100586.64;1735142;80;22489;-63
2022/03/12 09:27:46;;;;;;;13.08;7.95;;;;;;;18.09;17.66;100580.23;1731694;80;21601;-63
2022/03/12 09:30:14;;;;;;;11.88;9.10;;;;;;;18.22;17.77;100580.85;1731936;80;21503;-64
2022/03/12 09:32:42;;;;;;;11.00;8.53;;;;;;;17.63;17.29;100570.94;1676946;83;21501;-62
2022/03/12 09:35:09;;;;;;;11.95;7.87;;;;;;;17.45;17.81;100580.81;1686698;83;20957;-62
2022/03/12 09:37:38;;;;;;;10.40;7.62;;;;;;;17.83;18.00;100568.44;1716605;81;22504;-62
2022/03/12 09:40:05;;;;;;;7.37;6.35;;;;;;;18.20;17.60;100571.63;1699036;83;21613;-62
2022/03/12 09:42:32;;;;;;;10.00;7.75;;;;;;;18.44;16.82;100555.98;1737611;80;21617;-60
2022/03/12 09:44:59;;;;;;;9.45;7.30;;;;;;;17.71;16.95;100550.55;1738605;80;21559;-62
2022/03/12 09:47:26;;;;;;;7.97;6.33;;;;;;;15.81;18.46;100549.72;1700300;83;21565;-61
2022/03/12 09:49:52;;;;;;;8.20;6.62;;;;;;;15.81;18.46;100549.72;1696582;83;22600;-60
2022/03/12 09:52:19;;;;;;;8.30;5.78;;;;;;;15.18;18.73;100557.56;1694857;83;20976;-61
2022/03/12 09:54:47;;;;;;;6.03;4.72;;;;;;;14.75;18.93;100551.17;1731092;80;20899;-61
2022/03/12 09:57:15;;;;;;;8.18;5.37;;;;;;;14.48;19.23;100551.91;1737261;80;21372;-62
2022/03/12 09:59:42;;;;;;;;;;;;;;;14.16;18.73;100555.97;1742282;80;21517;-64
2022/03/12 10:02:11;;;;;;;6.50;4.72;;;;;;;13.76;18.75;100543.97;1735549;81;22517;-63
2022/03/12 10:04:37;;;;;;;5.28;3.92;;;;;;;13.55;19.93;100544.41;1739407;80;20993;-62
2022/03/12 10:07:06;;;;;;;4.97;3.98;;;;;;;13.44;19.79;100549.27;1700183;83;21104;-61
2022/03/12 10:09:34;;;;;;;7.25;4.78;;;;;;;13.28;20.16;100552.95;1691865;83;21623;-60
2022/03/12 10:12:01;;;;;;;9.55;4.72;;;;;;;13.24;19.72;100546.93;1685625;82;21358;-61
2022/03/12 10:14:30;;;;;;;5.08;3.98;;;;;;;13.04;19.90;100544.20;1728274;81;22360;-61
2022/03/12 10:16:56;;;;;;;;;;;;;;;12.98;19.99;100541.81;1728470;80;20914;-62
2022/03/12 10:19:25;;;;;;;4.85;3.50;;;;;;;13.02;19.99;100546.90;1727597;81;20174;-62
2022/03/12 10:21:52;;;;;;;5.58;3.83;;;;;;;13.04;20.44;100530.54;1725969;81;21438;-61
2022/03/12 10:24:19;;;;;;;8.47;4.47;;;;;;;13.06;20.83;100527.84;1725944;81;21514;-61
2022/03/12 10:26:46;;;;;;;9.90;4.97;;;;;;;13.11;20.81;100526.33;1729525;81;22485;-59
2022/03/12 10:29:14;;;;;;;6.53;4.35;;;;;;;13.10;20.54;100532.08;1732365;81;21332;-60
2022/03/12 10:31:43;;;;;;;;;;;;;;;13.00;20.44;100513.10;1725657;81;21560;-60
2022/03/12 10:34:23;;;;;;;10.08;5.53;;;;;;;12.98;20.90;100517.59;1733482;80;20422;-60
2022/03/12 10:36:54;;;;;;;9.88;4.92;;;;;;;13.01;21.04;100512.63;1687523;84;20908;-60
2022/03/12 10:39:35;;;;;;;5.03;4.17;;;;;;;13.13;21.12;100500.28;1698219;84;22527;-62
2022/03/12 10:42:07;;;;;;;6.78;5.00;;;;;;;13.27;20.94;100501.52;1729130;81;21334;-61
2022/03/12 10:44:41;;;;;;;11.20;5.53;;;;;;;13.39;21.04;100497.07;1719633;81;21530;-62
2022/03/12 10:47:20;;;;;;;10.75;4.78;;;;;;;13.41;20.61;100492.58;1731293;81;21444;-61
2022/03/12 10:49:58;;;;;;;8.13;4.12;;;;;;;13.40;20.70;100482.95;1727982;80;21633;-62
2022/03/12 10:52:29;;;;;;;6.30;4.87;;;;;;;13.59;20.91;100476.44;1725471;81;22921;-61
2022/03/12 10:54:56;;;;;;;5.05;4.05;;;;;;;13.69;20.84;100486.16;1731310;81;20922;-61
2022/03/12 10:57:23;;;;;;;7.60;5.12;;;;;;;13.59;20.92;100479.08;1721756;81;21473;-60
2022/03/12 10:59:54;;;;;;;7.55;4.50;;;;;;;13.63;21.01;100468.77;1729705;81;21431;-61
2022/03/12 11:02:21;;;;;;;4.78;4.28;;;;;;;13.65;20.13;100464.28;1729411;81;21459;-61
2022/03/12 11:04:48;;;;;;;6.60;5.10;;;;;;;13.69;20.90;100461.91;1730129;81;22578;-61
2022/03/12 11:07:28;;;;;;;10.32;5.53;;;;;;;13.77;20.87;100466.89;1729135;80;21866;-61
2022/03/12 11:09:56;;;;;;;6.72;5.45;;;;;;;13.74;21.28;100460.40;1729864;81;21466;-60
2022/03/12 11:12:35;;;;;;;12.20;6.85;;;;;;;13.73;21.20;100461.31;1729159;81;21486;-59
2022/03/12 11:15:15;;;;;;;15.10;7.50;;;;;;;13.63;21.18;100452.45;1729215;81;21463;-61
2022/03/12 11:17:49;;;;;;;10.95;7.47;;;;;;;13.60;21.40;100450.43;1723477;81;22477;-61
2022/03/12 11:20:28;;;;;;;12.10;7.37;;;;;;;13.68;21.47;100448.31;1730303;81;21502;-61
2022/03/12 11:23:13;;;;;;;10.80;7.15;;;;;;;13.75;21.35;100450.20;1685197;83;21418;-61
2022/03/12 11:26:04;;;;;;;12.98;7.67;;;;;;;13.65;21.27;100455.03;1687289;82;21536;-62
2022/03/12 11:28:32;;;;;;;9.70;6.25;;;;;;;13.47;21.15;100449.20;1731533;80;21431;-62
2022/03/12 11:30:56;;;;;;;11.28;7.40;;;;;;;13.33;21.11;100441.86;1728056;81;22465;-61
2022/03/12 11:33:25;;;;;;;10.50;6.62;;;;;;;13.20;21.39;100439.71;1729146;81;27794;-61
2022/03/12 11:36:00;;;;;;;9.63;6.42;;;;;;;13.30;21.71;100433.62;1728409;82;21505;-60
2022/03/12 11:38:27;;;;;;;10.05;7.00;;;;;;;13.42;21.84;100432.23;1730879;82;21411;-60
2022/03/12 11:41:04;;;;;;;;;;;;;;;13.57;22.00;100426.30;1730182;80;21371;-61
2022/03/12 11:43:32;;;;;;;12.60;7.08;;;;;;;13.66;21.74;100428.17;1721310;81;22626;-60
2022/03/12 11:45:59;;;;;;;10.68;7.33;;;;;;;13.64;21.83;100424.27;1732649;81;21404;-61
2022/03/12 11:48:30;;;;;;;7.90;6.25;;;;;;;13.56;21.96;100424.59;1726493;81;21435;-60
2022/03/12 11:51:00;;;;;;;10.35;6.72;;;;;;;13.59;22.10;100422.27;1733152;80;21393;-60
2022/03/12 11:53:27;;;;;;;7.83;5.97;;;;;;;13.57;22.22;100425.45;1690461;82;20925;-61
2022/03/12 11:55:54;;;;;;;10.88;6.58;;;;;;;13.50;22.19;100416.91;1722640;80;22681;-61
2022/03/12 11:58:22;;;;;;;7.80;5.47;;;;;;;13.34;22.43;100416.72;1712159;80;21483;-61
2022/03/12 12:00:49;;;;;;;7.87;5.30;;;;;;;13.11;22.25;100417.64;1726054;81;21540;-61
2022/03/12 12:03:16;;;;;;;7.70;5.27;;;;;;;12.98;22.67;100416.42;1729921;81;21492;-61
2022/03/12 12:05:45;;;;;;;;;;;;;;;12.85;22.65;100420.86;1686470;84;21545;-61
2022/03/12 12:08:14;;;;;;;9.98;5.58;;;;;;;12.64;22.78;100413.34;1674823;83;20431;-61
2022/03/12 12:10:42;;;;;;;8.48;5.92;;;;;;;12.47;22.89;100410.50;1691026;82;26938;-60
2022/03/12 12:13:12;;;;;;;9.23;6.25;;;;;;;12.27;23.19;100411.25;1688201;83;21567;-60
2022/03/12 12:15:42;;;;;;;12.00;7.53;;;;;;;12.17;23.50;100409.42;1686508;82;21536;-60
2022/03/12 12:18:12;;;;;;;11.90;7.75;;;;;;;12.08;23.59;100411.08;1689567;82;21529;-60
2022/03/12 12:20:40;;;;;;;10.78;6.85;;;;;;;11.95;23.88;100408.02;1688534;82;22620;-60
2022/03/12 12:23:19;;;;;;;10.53;7.95;;;;;;;11.97;23.91;100400.06;1680355;83;21510;-60
2022/03/12 12:25:47;;;;;;;11.22;7.25;;;;;;;12.04;23.96;100400.25;1668952;83;21608;-61
2022/03/12 12:28:22;;;;;;;8.33;5.83;;;;;;;12.13;24.18;100393.33;1689184;82;21624;-61
2022/03/12 12:30:53;;;;;;;8.30;5.40;;;;;;;12.24;24.01;100395.09;1734236;80;21593;-60
2022/03/12 12:33:25;;;;;;;9.98;5.30;;;;;;;12.32;24.52;100389.53;1729877;80;22519;-60
2022/03/12 12:36:12;;;;;;;9.28;4.90;;;;;;;12.32;24.03;100380.30;1734182;82;21468;-59
2022/03/12 12:38:43;;;;;;;6.70;5.62;;;;;;;12.34;24.22;100382.42;1720286;82;21421;-59
2022/03/12 12:41:10;;;;;;;9.45;5.60;;;;;;;12.32;24.37;100369.76;1734111;80;21347;-60
2022/03/12 12:43:42;;;;;;;13.15;8.48;;;;;;;12.31;24.30;100369.34;1738895;80;21573;-60
2022/03/12 12:46:13;;;;;;;10.75;8.35;;;;;;;12.18;24.30;100375.53;1726740;81;22531;-59
2022/03/12 12:48:50;;;;;;;14.20;8.75;;;;;;;12.10;24.43;100376.76;1739759;80;21565;-58
2022/03/12 12:51:26;;;;;;;10.78;7.58;;;;;;;12.00;24.41;100370.52;1736651;80;21081;-59
2022/03/12 12:53:59;;;;;;;10.28;6.30;;;;;;;11.87;24.26;100367.89;1737136;79;20930;-58
2022/03/12 12:56:38;;;;;;;8.45;5.97;;;;;;;11.86;24.59;100373.59;1731385;80;21442;-58
2022/03/12 12:59:13;;;;;;;7.47;5.47;;;;;;;11.87;24.71;100375.80;1736272;80;22679;-59
2022/03/12 13:01:48;;;;;;;7.83;5.97;;;;;;;11.92;24.96;100372.55;1735724;80;20991;-58
2022/03/12 13:04:19;;;;;;;9.93;6.15;;;;;;;11.98;24.97;100367.08;1735328;80;21025;-57
2022/03/12 13:06:49;;;;;;;10.23;5.17;;;;;;;11.90;25.11;100370.43;1736459;80;21430;-57
2022/03/12 13:09:24;;;;;;;9.48;5.17;;;;;;;11.83;25.19;100363.66;1732111;80;21258;-59
2022/03/12 13:12:02;;;;;;;8.63;5.92;;;;;;;11.74;25.15;100365.30;1712427;81;21290;-57
2022/03/12 13:14:45;;;;;;;11.10;5.70;;;;;;;11.56;25.34;100366.81;1727685;81;22326;-57
2022/03/12 13:17:30;;;;;;;8.60;6.25;;;;;;;11.45;25.55;100373.77;1722875;82;21347;-58
2022/03/12 13:19:57;;;;;;;11.28;6.45;;;;;;;11.46;25.80;100371.08;1722489;81;21336;-59
2022/03/12 13:22:24;;;;;;;9.70;6.83;;;;;;;11.48;26.06;100373.66;1730927;80;21657;-57
2022/03/12 13:25:00;;;;;;;16.40;9.03;;;;;;;11.52;26.01;100371.78;1730894;81;22430;-57
2022/03/12 13:27:34;;;;;;;21.23;10.60;;;;;;;11.46;26.04;100368.45;1732696;81;21417;-57
2022/03/12 13:30:19;;;;;;;15.58;10.10;;;;;;;11.39;25.73;100372.66;1724667;81;21383;-58
2022/03/12 13:32:47;;;;;;;15.95;9.25;;;;;;;11.38;25.90;100372.28;1725012;81;21105;-56
2022/03/12 13:35:22;;;;;;;13.65;8.18;;;;;;;11.39;25.80;100369.56;1726295;81;21462;-58
2022/03/12 13:37:49;;;;;;;13.38;8.30;;;;;;;11.28;25.52;100369.08;1731306;81;22576;-57
2022/03/12 13:40:19;;;;;;;24.37;14.60;;;;;;;11.17;25.44;100364.20;1729717;80;21496;-58